createdAt,value
2023-03-17T00:01:12.007Z,0.65
2023-03-17T00:03:41.726Z,0.72
2023-03-17T00:06:29.733Z,0.72
2023-03-17T00:08:57.589Z,0.65
2023-03-17T00:11:26.546Z,0.59
2023-03-17T00:13:53.158Z,0.68
2023-03-17T00:16:23.287Z,0.68
2023-03-17T00:18:51.254Z,0.69
2023-03-17T00:21:24.948Z,0.76
2023-03-17T00:23:51.877Z,0.63
2023-03-17T00:26:20.287Z,0.69
2023-03-17T00:28:47.361Z,0.65
2023-03-17T00:31:21.308Z,0.73
2023-03-17T00:33:50.426Z,0.71
2023-03-17T00:36:20.037Z,0.63
2023-03-17T00:38:47.272Z,0.47
2023-03-17T00:41:14.273Z,0.56
2023-03-17T00:43:41.361Z,0.62
2023-03-17T00:46:16.783Z,0.67
2023-03-17T00:48:45.186Z,0.64
2023-03-17T00:51:12.766Z,0.63
2023-03-17T00:53:39.829Z,0.54
2023-03-17T00:56:14.449Z,0.44
2023-03-17T00:58:42.126Z,0.41
2023-03-17T01:01:09.687Z,0.34
2023-03-17T01:03:37.300Z,0.18
2023-03-17T01:06:06.343Z,0.20
2023-03-17T01:08:33.819Z,0.30
2023-03-17T01:11:00.546Z,0.21
2023-03-17T01:13:27.538Z,0.17
2023-03-17T01:15:56.497Z,0.12
2023-03-17T01:18:23.589Z,0.14
2023-03-17T01:20:51.358Z,0.08
2023-03-17T01:23:18.346Z,0.16
2023-03-17T01:25:45.568Z,0.29
2023-03-17T01:28:17.961Z,0.37
2023-03-17T01:30:45.501Z,0.44
2023-03-17T01:33:13.337Z,0.28
2023-03-17T01:35:41.437Z,0.29
2023-03-17T01:38:08.662Z,0.37
2023-03-17T01:40:42.478Z,0.37
2023-03-17T01:43:09.025Z,0.32
2023-03-17T01:46:13.111Z,0.44
2023-03-17T01:49:01.082Z,0.49
2023-03-17T01:51:52.544Z,0.47
2023-03-17T01:54:30.598Z,0.52
2023-03-17T01:57:13.618Z,0.44
2023-03-17T01:59:46.487Z,0.33
2023-03-17T02:02:18.657Z,0.04
2023-03-17T02:04:45.346Z,-0.13
2023-03-17T02:07:12.567Z,-0.16
2023-03-17T02:09:40.045Z,-0.15
2023-03-17T02:12:07.801Z,-0.01
2023-03-17T02:14:34.581Z,0.12
2023-03-17T02:17:01.521Z,0.15
2023-03-17T02:19:28.572Z,0.33
2023-03-17T02:21:59.955Z,0.03
2023-03-17T02:24:37.663Z,-0.21
2023-03-17T02:27:14.657Z,-0.15
2023-03-17T02:29:42.329Z,-0.06
2023-03-17T02:32:10.019Z,0.06
2023-03-17T02:34:37.370Z,0.14
2023-03-17T02:37:04.641Z,0.17
2023-03-17T02:39:32.196Z,0.13
2023-03-17T02:41:59.438Z,0.05
2023-03-17T02:44:27.100Z,0.05
2023-03-17T02:46:53.894Z,0.12
2023-03-17T02:49:20.702Z,0.16
2023-03-17T02:51:48.111Z,-0.01
2023-03-17T02:54:14.914Z,0.11
2023-03-17T02:56:41.941Z,-0.18
2023-03-17T02:59:09.288Z,-0.18
2023-03-17T03:01:36.018Z,-0.26
2023-03-17T03:04:03.973Z,-0.24
2023-03-17T03:06:31.693Z,-0.10
2023-03-17T03:08:58.409Z,-0.04
2023-03-17T03:11:25.393Z,0.03
2023-03-17T03:13:52.252Z,0.05
2023-03-17T03:16:18.931Z,0.12
2023-03-17T03:18:45.720Z,0.23
2023-03-17T03:21:12.356Z,0.32
2023-03-17T03:23:39.000Z,0.39
2023-03-17T03:26:05.820Z,0.27
2023-03-17T03:28:32.524Z,0.33
2023-03-17T03:30:59.309Z,0.32
2023-03-17T03:33:26.203Z,0.39
2023-03-17T03:35:53.201Z,0.48
2023-03-17T03:38:19.955Z,0.49
2023-03-17T03:40:46.849Z,0.41
2023-03-17T03:43:22.907Z,0.43
2023-03-17T03:45:51.425Z,0.44
2023-03-17T03:48:18.548Z,0.47
2023-03-17T03:50:45.840Z,0.47
2023-03-17T03:53:12.907Z,0.30
2023-03-17T03:55:39.760Z,0.22
2023-03-17T03:58:06.843Z,0.19
2023-03-17T04:00:33.820Z,0.18
2023-03-17T04:03:01.496Z,-0.09
2023-03-17T04:05:28.187Z,-0.22
2023-03-17T04:07:55.014Z,-0.38
2023-03-17T04:10:21.654Z,-0.22
2023-03-17T04:12:48.355Z,-0.12
2023-03-17T04:15:16.857Z,-0.04
2023-03-17T04:17:44.196Z,-0.06
2023-03-17T04:20:13.157Z,-0.01
2023-03-17T04:22:41.718Z,-0.03
2023-03-17T04:25:10.312Z,-0.18
2023-03-17T04:27:37.476Z,-0.10
2023-03-17T04:30:05.441Z,-0.16
2023-03-17T04:32:32.184Z,-0.23
2023-03-17T04:34:58.979Z,-0.29
2023-03-17T04:37:26.351Z,-0.34
2023-03-17T04:39:53.446Z,-0.31
2023-03-17T04:42:20.169Z,-0.24
2023-03-17T04:44:47.016Z,-0.22
2023-03-17T04:47:13.630Z,-0.28
2023-03-17T04:49:40.494Z,-0.49
2023-03-17T04:52:07.159Z,-0.49
2023-03-17T04:54:33.790Z,-0.46
2023-03-17T04:57:00.941Z,-0.44
2023-03-17T04:59:27.587Z,-0.62
2023-03-17T05:01:54.261Z,-0.55
2023-03-17T05:04:31.334Z,-0.48
2023-03-17T05:06:58.670Z,-0.43
2023-03-17T05:09:26.838Z,-0.51
2023-03-17T05:11:53.567Z,-0.54
2023-03-17T05:14:20.814Z,-0.57
2023-03-17T05:16:48.489Z,-0.73
2023-03-17T05:19:16.487Z,-0.71
2023-03-17T05:21:43.702Z,-0.82
2023-03-17T05:24:10.426Z,-0.95
2023-03-17T05:26:37.318Z,-0.85
2023-03-17T05:29:04.603Z,-0.92
2023-03-17T05:31:31.760Z,-0.79
2023-03-17T05:33:58.798Z,-0.76
2023-03-17T05:36:25.613Z,-0.79
2023-03-17T05:38:52.444Z,-0.71
2023-03-17T05:41:19.421Z,-0.64
2023-03-17T05:43:46.784Z,-0.60
2023-03-17T05:46:13.818Z,-0.66
2023-03-17T05:48:40.790Z,-0.55
2023-03-17T05:51:07.456Z,-0.50
2023-03-17T05:53:35.936Z,-0.40
2023-03-17T05:56:03.060Z,-0.32
2023-03-17T05:58:29.918Z,-0.27
2023-03-17T06:00:56.939Z,-0.41
2023-03-17T06:03:23.631Z,-0.47
2023-03-17T06:05:50.354Z,-0.24
2023-03-17T06:08:17.062Z,-0.16
2023-03-17T06:10:43.987Z,0.01
2023-03-17T06:13:11.670Z,-0.02
2023-03-17T06:15:38.513Z,-0.19
2023-03-17T06:18:05.670Z,-0.34
2023-03-17T06:20:33.284Z,-0.35
2023-03-17T06:23:04.905Z,-0.24
2023-03-17T06:25:33.694Z,-0.19
2023-03-17T06:28:02.816Z,0.12
2023-03-17T06:30:31.405Z,0.11
2023-03-17T06:32:58.569Z,0.14
2023-03-17T06:35:25.356Z,0.49
2023-03-17T06:37:52.297Z,0.83
2023-03-17T06:40:18.962Z,1.13
2023-03-17T06:42:45.705Z,1.09
2023-03-17T06:45:13.104Z,1.39
2023-03-17T06:47:39.892Z,1.57
2023-03-17T06:50:12.284Z,1.57
2023-03-17T06:52:39.778Z,1.88
2023-03-17T06:55:07.187Z,1.98
2023-03-17T06:57:34.348Z,2.32
2023-03-17T07:00:01.216Z,2.45
2023-03-17T07:02:28.061Z,2.82
2023-03-17T07:04:54.891Z,2.90
2023-03-17T07:07:21.641Z,3.24
2023-03-17T07:09:48.276Z,3.37
2023-03-17T07:12:15.721Z,3.75
2023-03-17T07:14:42.384Z,3.70
2023-03-17T07:17:14.544Z,4.21
2023-03-17T07:19:42.316Z,4.44
2023-03-17T07:22:11.898Z,4.02
2023-03-17T07:24:39.596Z,4.29
2023-03-17T07:27:06.428Z,5.04
2023-03-17T07:29:34.054Z,5.33
2023-03-17T07:32:02.073Z,5.46
2023-03-17T07:34:28.983Z,5.72
2023-03-17T07:36:55.621Z,6.32
2023-03-17T07:39:22.601Z,7.16
2023-03-17T07:41:55.024Z,7.66
2023-03-17T07:44:22.709Z,8.40
2023-03-17T07:46:50.143Z,8.10
2023-03-17T07:49:18.210Z,8.50
2023-03-17T07:51:47.563Z,8.62
2023-03-17T07:54:15.870Z,8.89
2023-03-17T07:56:42.613Z,8.87
2023-03-17T07:59:10.868Z,10.12
2023-03-17T08:01:38.386Z,11.63
2023-03-17T08:04:07.395Z,12.34
2023-03-17T08:06:34.217Z,12.15
2023-03-17T08:09:01.025Z,10.23
2023-03-17T08:11:29.450Z,10.44
2023-03-17T08:13:56.365Z,11.13
2023-03-17T08:16:23.186Z,11.46
2023-03-17T08:18:49.975Z,11.90
2023-03-17T08:21:16.804Z,14.34
2023-03-17T08:23:43.861Z,13.54
2023-03-17T08:26:10.673Z,14.31
2023-03-17T08:28:37.532Z,16.04
2023-03-17T08:31:22.811Z,16.62
2023-03-17T08:33:52.700Z,16.80
2023-03-17T08:36:20.963Z,16.54
2023-03-17T08:38:48.378Z,15.91
2023-03-17T08:41:18.292Z,15.72
2023-03-17T08:43:46.333Z,14.63
2023-03-17T08:46:14.713Z,15.15
2023-03-17T08:48:41.443Z,16.23
2023-03-17T08:51:08.877Z,15.97
2023-03-17T08:53:36.192Z,15.30
2023-03-17T08:56:04.997Z,16.82
2023-03-17T08:58:31.594Z,18.23
2023-03-17T09:01:00.503Z,19.13
2023-03-17T09:03:28.124Z,19.56
2023-03-17T09:05:55.105Z,18.90
2023-03-17T09:08:21.989Z,18.47
2023-03-17T09:10:49.617Z,17.72
2023-03-17T09:13:16.332Z,17.50
2023-03-17T09:15:43.092Z,17.76
2023-03-17T09:18:10.512Z,16.90
2023-03-17T09:20:37.243Z,15.83
2023-03-17T09:23:08.790Z,17.33
2023-03-17T09:25:37.469Z,18.48
2023-03-17T09:28:05.181Z,18.77
2023-03-17T09:30:32.840Z,19.09
2023-03-17T09:33:00.680Z,20.47
2023-03-17T09:35:28.294Z,21.76
2023-03-17T09:37:55.638Z,21.80
2023-03-17T09:40:31.672Z,23.12
2023-03-17T09:43:19.408Z,20.90
2023-03-17T09:45:46.251Z,20.58
2023-03-17T09:48:24.281Z,21.27
2023-03-17T09:51:07.973Z,20.30
2023-03-17T09:53:36.281Z,21.76
2023-03-17T09:56:11.666Z,21.67
2023-03-17T09:58:41.720Z,23.03
2023-03-17T10:01:10.398Z,22.38
2023-03-17T10:03:37.488Z,22.60
2023-03-17T10:06:25.149Z,22.66
2023-03-17T10:09:00.609Z,20.13
2023-03-17T10:11:38.461Z,19.86
2023-03-17T10:14:24.709Z,20.22
2023-03-17T10:17:03.604Z,20.91
2023-03-17T10:19:35.243Z,19.36
2023-03-17T10:22:15.930Z,19.68
2023-03-17T10:24:48.904Z,18.89
2023-03-17T10:27:17.288Z,18.29
2023-03-17T10:29:45.905Z,18.85
2023-03-17T10:32:14.693Z,18.80
2023-03-17T10:34:42.357Z,19.07
2023-03-17T10:37:17.924Z,18.96
2023-03-17T10:39:47.443Z,17.77
2023-03-17T10:42:21.715Z,18.40
2023-03-17T10:45:29.782Z,18.25
2023-03-17T10:47:58.450Z,18.78
2023-03-17T10:50:34.326Z,18.23
2023-03-17T10:53:10.880Z,19.44
2023-03-17T10:55:37.455Z,21.64
2023-03-17T10:58:07.861Z,20.34
2023-03-17T11:00:38.455Z,19.81
2023-03-17T11:03:19.326Z,20.89
2023-03-17T11:06:13.621Z,21.27
2023-03-17T11:08:42.231Z,21.76
2023-03-17T11:11:23.125Z,23.37
2023-03-17T11:13:49.767Z,22.69
2023-03-17T11:16:24.166Z,21.93
2023-03-17T11:18:57.424Z,23.47
2023-03-17T11:21:30.902Z,23.86
2023-03-17T11:24:09.702Z,23.30
2023-03-17T11:26:53.558Z,21.81
2023-03-17T11:29:34.877Z,21.19
2023-03-17T11:32:19.736Z,21.45
2023-03-17T11:35:10.550Z,20.64
2023-03-17T11:38:15.757Z,20.70
2023-03-17T11:40:57.653Z,20.62
2023-03-17T11:43:55.417Z,20.08
2023-03-17T11:46:36.169Z,19.62
2023-03-17T11:49:14.657Z,19.24
2023-03-17T11:52:12.228Z,18.54
2023-03-17T11:54:54.377Z,18.04
2023-03-17T11:57:30.107Z,18.80
2023-03-17T12:00:32.982Z,17.99
2023-03-17T12:03:05.648Z,18.07
2023-03-17T12:05:33.924Z,17.68
2023-03-17T12:08:11.968Z,18.29
2023-03-17T12:10:52.204Z,17.89
2023-03-17T12:13:25.064Z,18.47
2023-03-17T12:15:57.138Z,17.75
2023-03-17T12:18:32.847Z,17.22
2023-03-17T12:21:21.004Z,17.50
2023-03-17T12:23:50.249Z,17.89
2023-03-17T12:26:28.268Z,17.87
2023-03-17T12:29:16.654Z,17.45
2023-03-17T12:31:58.280Z,17.82
2023-03-17T12:34:51.859Z,18.02
2023-03-17T12:37:19.430Z,17.40
2023-03-17T12:39:55.566Z,17.77
2023-03-17T12:42:37.637Z,17.73
2023-03-17T12:45:26.303Z,17.38
2023-03-17T12:48:02.815Z,18.05
2023-03-17T12:50:50.741Z,18.12
2023-03-17T12:53:44.889Z,18.19
2023-03-17T12:56:21.997Z,17.59
2023-03-17T12:58:51.151Z,17.99
2023-03-17T13:01:32.805Z,18.10
2023-03-17T13:04:26.456Z,18.65
2023-03-17T13:06:57.435Z,18.38
2023-03-17T13:09:46.943Z,18.00
2023-03-17T13:12:42.092Z,18.20
2023-03-17T13:15:28.184Z,18.10
2023-03-17T13:18:15.356Z,18.83
2023-03-17T13:21:13.767Z,18.41
2023-03-17T13:23:54.993Z,18.28
2023-03-17T13:26:55.063Z,18.41
2023-03-17T13:29:34.108Z,18.21
2023-03-17T13:32:15.784Z,18.47
2023-03-17T13:34:55.659Z,18.06
2023-03-17T13:37:31.239Z,18.33
2023-03-17T13:40:13.512Z,17.95
2023-03-17T13:43:13.861Z,17.60
2023-03-17T13:45:43.907Z,17.47
2023-03-17T13:48:36.560Z,17.40
2023-03-17T13:51:17.298Z,17.27
2023-03-17T13:54:08.262Z,17.21
2023-03-17T13:56:37.458Z,17.22
2023-03-17T13:59:15.089Z,17.06
2023-03-17T14:01:49.054Z,17.20
2023-03-17T14:04:31.124Z,17.30
2023-03-17T14:07:04.705Z,17.42
2023-03-17T14:09:42.333Z,17.41
2023-03-17T14:12:19.627Z,17.64
2023-03-17T14:15:17.349Z,17.41
2023-03-17T14:17:50.259Z,17.32
2023-03-17T14:20:27.755Z,17.21
2023-03-17T14:23:01.334Z,17.39
2023-03-17T14:25:34.975Z,17.09
2023-03-17T14:28:05.921Z,16.84
2023-03-17T14:30:34.800Z,16.86
2023-03-17T14:33:29.955Z,16.78
2023-03-17T14:36:00.095Z,16.61
2023-03-17T14:38:32.516Z,16.37
2023-03-17T14:41:01.189Z,16.20
2023-03-17T14:43:27.888Z,16.32
2023-03-17T14:46:04.085Z,16.13
2023-03-17T14:48:40.335Z,16.07
2023-03-17T14:51:30.493Z,15.95
2023-03-17T14:54:01.150Z,16.02
2023-03-17T14:56:40.975Z,15.73
2023-03-17T14:59:56.369Z,15.77
2023-03-17T15:02:24.534Z,15.91
2023-03-17T15:05:06.642Z,15.61
2023-03-17T15:07:39.852Z,15.65
2023-03-17T15:10:15.716Z,15.48
2023-03-17T15:12:43.232Z,15.48
2023-03-17T15:15:27.450Z,15.43
2023-03-17T15:17:58.832Z,15.18
2023-03-17T15:20:25.911Z,15.39
2023-03-17T15:22:57.122Z,15.39
2023-03-17T15:25:37.507Z,15.30
2023-03-17T15:28:16.043Z,15.10
2023-03-17T15:30:48.693Z,15.01
2023-03-17T15:33:32.174Z,15.31
2023-03-17T15:36:01.951Z,15.03
2023-03-17T15:38:29.435Z,15.25
2023-03-17T15:40:56.350Z,15.10
2023-03-17T15:43:23.568Z,15.03
2023-03-17T15:46:08.715Z,14.95
2023-03-17T15:48:36.667Z,15.07
2023-03-17T15:51:05.269Z,15.08
2023-03-17T15:53:32.224Z,15.14
2023-03-17T15:55:59.164Z,15.14
2023-03-17T15:58:26.138Z,15.10
2023-03-17T16:00:57.037Z,15.06
2023-03-17T16:03:33.303Z,15.14
2023-03-17T16:06:01.852Z,15.30
2023-03-17T16:08:28.886Z,15.41
2023-03-17T16:10:58.775Z,15.44
2023-03-17T16:13:25.434Z,15.39
2023-03-17T16:15:57.623Z,15.38
2023-03-17T16:18:32.869Z,15.31
2023-03-17T16:21:00.880Z,15.16
2023-03-17T16:23:31.666Z,14.98
2023-03-17T16:26:11.728Z,14.74
2023-03-17T16:28:41.390Z,14.52
2023-03-17T16:31:34.502Z,14.25
2023-03-17T16:34:01.539Z,14.19
2023-03-17T16:36:28.241Z,14.17
2023-03-17T16:38:54.952Z,14.12
2023-03-17T16:41:24.443Z,13.93
2023-03-17T16:43:58.926Z,13.69
2023-03-17T16:46:26.546Z,13.72
2023-03-17T16:48:53.590Z,13.57
2023-03-17T16:51:20.371Z,13.50
2023-03-17T16:53:47.063Z,13.47
2023-03-17T16:56:17.700Z,13.38
2023-03-17T16:58:45.602Z,13.33
2023-03-17T17:01:21.918Z,13.35
2023-03-17T17:03:48.982Z,13.24
2023-03-17T17:06:16.229Z,13.06
2023-03-17T17:08:43.916Z,13.17
2023-03-17T17:11:13.103Z,13.13
2023-03-17T17:13:44.527Z,12.93
2023-03-17T17:16:17.457Z,12.76
2023-03-17T17:18:44.166Z,12.63
2023-03-17T17:21:11.094Z,12.56
2023-03-17T17:23:37.812Z,12.58
2023-03-17T17:26:04.542Z,12.53
2023-03-17T17:28:31.778Z,12.33
2023-03-17T17:30:59.700Z,12.22
2023-03-17T17:33:27.107Z,12.24
2023-03-17T17:35:53.858Z,12.23
2023-03-17T17:38:29.027Z,12.05
2023-03-17T17:40:58.200Z,11.77
2023-03-17T17:43:25.431Z,11.58
2023-03-17T17:45:52.476Z,11.53
2023-03-17T17:48:22.630Z,11.46
2023-03-17T17:50:51.256Z,11.45
2023-03-17T17:53:18.847Z,11.35
2023-03-17T17:55:47.722Z,11.31
2023-03-17T17:58:24.099Z,11.20
2023-03-17T18:00:51.596Z,11.13
2023-03-17T18:03:22.239Z,11.02
2023-03-17T18:05:49.026Z,10.95
2023-03-17T18:08:15.908Z,10.90
2023-03-17T18:10:42.755Z,10.84
2023-03-17T18:13:09.589Z,10.77
2023-03-17T18:15:36.282Z,10.67
2023-03-17T18:18:02.931Z,10.47
2023-03-17T18:20:30.515Z,10.42
2023-03-17T18:22:57.779Z,10.31
2023-03-17T18:25:28.033Z,10.22
2023-03-17T18:27:55.063Z,10.16
2023-03-17T18:30:26.099Z,10.11
2023-03-17T18:33:00.537Z,10.09
2023-03-17T18:35:29.215Z,9.97
2023-03-17T18:37:57.660Z,9.93
2023-03-17T18:40:25.683Z,9.95
2023-03-17T18:42:52.383Z,9.94
2023-03-17T18:45:19.424Z,9.94
2023-03-17T18:47:46.209Z,9.89
2023-03-17T18:50:15.589Z,9.65
2023-03-17T18:52:43.834Z,9.70
2023-03-17T18:55:12.336Z,9.67
2023-03-17T18:57:39.542Z,9.64
2023-03-17T19:00:09.762Z,9.60
2023-03-17T19:02:37.933Z,9.56
2023-03-17T19:05:06.186Z,9.54
2023-03-17T19:07:33.373Z,9.52
2023-03-17T19:10:00.320Z,9.46
2023-03-17T19:12:27.011Z,9.49
2023-03-17T19:14:53.694Z,9.49
2023-03-17T19:17:20.336Z,9.38
2023-03-17T19:19:47.168Z,9.01
2023-03-17T19:22:14.139Z,9.15
2023-03-17T19:24:41.152Z,9.22
2023-03-17T19:27:08.009Z,9.20
2023-03-17T19:29:34.693Z,9.17
2023-03-17T19:32:02.338Z,9.15
2023-03-17T19:34:29.160Z,9.11
2023-03-17T19:36:56.064Z,9.05
2023-03-17T19:39:22.997Z,9.02
2023-03-17T19:41:53.221Z,9.04
2023-03-17T19:44:19.977Z,9.00
2023-03-17T19:46:46.641Z,8.94
2023-03-17T19:49:13.600Z,8.87
2023-03-17T19:51:41.881Z,8.80
2023-03-17T19:54:09.990Z,8.70
2023-03-17T19:56:38.375Z,8.67
2023-03-17T19:59:06.297Z,8.62
2023-03-17T20:01:33.136Z,8.57
2023-03-17T20:03:59.850Z,8.50
2023-03-17T20:06:27.241Z,8.40
2023-03-17T20:08:54.189Z,8.26
2023-03-17T20:11:21.085Z,8.07
2023-03-17T20:13:47.771Z,8.07
2023-03-17T20:16:14.512Z,8.11
2023-03-17T20:18:41.287Z,7.97
2023-03-17T20:21:12.711Z,7.95
2023-03-17T20:23:39.496Z,7.93
2023-03-17T20:26:06.918Z,7.76
2023-03-17T20:28:33.971Z,7.85
2023-03-17T20:31:02.629Z,7.85
2023-03-17T20:33:29.479Z,7.66
2023-03-17T20:35:56.569Z,7.68
2023-03-17T20:38:23.626Z,7.67
2023-03-17T20:40:50.300Z,7.72
2023-03-17T20:43:17.268Z,7.69
2023-03-17T20:45:44.060Z,7.52
2023-03-17T20:48:11.275Z,7.57
2023-03-17T20:50:39.233Z,7.61
2023-03-17T20:53:06.072Z,7.63
2023-03-17T20:55:32.875Z,7.59
2023-03-17T20:57:59.847Z,7.60
2023-03-17T21:00:30.142Z,7.64
2023-03-17T21:02:57.178Z,7.63
2023-03-17T21:05:26.529Z,7.63
2023-03-17T21:07:53.470Z,7.50
2023-03-17T21:10:20.626Z,7.40
2023-03-17T21:12:48.139Z,7.46
2023-03-17T21:15:15.645Z,7.37
2023-03-17T21:17:43.050Z,7.35
2023-03-17T21:20:12.402Z,7.25
2023-03-17T21:22:39.995Z,7.13
2023-03-17T21:25:08.773Z,7.09
2023-03-17T21:27:37.694Z,6.88
2023-03-17T21:30:12.003Z,7.05
2023-03-17T21:32:40.345Z,7.12
2023-03-17T21:35:08.561Z,7.17
2023-03-17T21:37:35.540Z,7.17
2023-03-17T21:40:02.255Z,7.09
2023-03-17T21:42:29.096Z,7.02
2023-03-17T21:44:55.799Z,7.00
2023-03-17T21:47:22.505Z,6.94
2023-03-17T21:49:49.173Z,6.96
2023-03-17T21:52:15.926Z,6.72
2023-03-17T21:54:42.657Z,6.73
2023-03-17T21:57:11.757Z,6.72
2023-03-17T21:59:38.688Z,6.78
2023-03-17T22:02:05.914Z,6.57
2023-03-17T22:04:32.660Z,6.54
2023-03-17T22:06:59.426Z,6.47
2023-03-17T22:09:26.241Z,6.11
2023-03-17T22:11:53.078Z,6.30
2023-03-17T22:14:20.714Z,6.36
2023-03-17T22:16:49.337Z,6.35
2023-03-17T22:19:18.204Z,6.38
2023-03-17T22:21:45.952Z,6.33
2023-03-17T22:24:12.638Z,6.35
2023-03-17T22:26:39.399Z,6.34
2023-03-17T22:29:06.176Z,6.27
2023-03-17T22:31:34.729Z,6.14
2023-03-17T22:34:02.252Z,5.99
2023-03-17T22:36:29.766Z,5.98
2023-03-17T22:38:57.145Z,6.02
2023-03-17T22:41:27.014Z,6.03
2023-03-17T22:43:54.208Z,6.14
2023-03-17T22:46:21.705Z,6.11
2023-03-17T22:48:49.130Z,6.20
2023-03-17T22:51:18.428Z,6.25
2023-03-17T22:53:45.582Z,6.26
2023-03-17T22:56:14.046Z,6.05
2023-03-17T22:58:41.052Z,6.10
2023-03-17T23:01:09.015Z,5.80
2023-03-17T23:03:36.025Z,5.91
2023-03-17T23:06:04.362Z,5.99
2023-03-17T23:08:35.222Z,6.05
2023-03-17T23:11:06.122Z,6.11
2023-03-17T23:13:33.167Z,5.90
2023-03-17T23:15:59.871Z,5.88
2023-03-17T23:18:26.627Z,5.99
2023-03-17T23:20:53.466Z,5.89
2023-03-17T23:23:20.119Z,6.01
2023-03-17T23:25:47.048Z,5.86
2023-03-17T23:28:15.508Z,5.91
2023-03-17T23:30:43.796Z,5.81
2023-03-17T23:33:10.611Z,5.90
2023-03-17T23:35:37.979Z,5.84
2023-03-17T23:38:04.681Z,5.85
2023-03-17T23:40:32.739Z,5.93
2023-03-17T23:42:59.873Z,5.98
2023-03-17T23:45:26.616Z,5.93
2023-03-17T23:47:55.217Z,6.01
2023-03-17T23:50:21.899Z,6.02
2023-03-17T23:52:49.334Z,6.09
2023-03-17T23:55:16.773Z,6.01
2023-03-17T23:57:44.246Z,5.91
